createdAt,value
2019-04-26T00:02:36.140Z,43.00
2019-04-26T00:05:05.923Z,43.00
2019-04-26T00:07:35.236Z,43.20
2019-04-26T00:10:07.655Z,43.00
2019-04-26T00:15:33.066Z,44.10
2019-04-26T00:18:04.426Z,43.90
2019-04-26T00:20:33.676Z,43.80
2019-04-26T00:23:02.962Z,43.70
2019-04-26T00:25:32.263Z,44.70
2019-04-26T00:28:01.572Z,45.90
2019-04-26T00:30:31.084Z,44.40
2019-04-26T00:33:00.350Z,45.30
2019-04-26T00:35:29.791Z,44.80
2019-04-26T00:37:59.660Z,46.50
2019-04-26T00:40:28.949Z,45.90
2019-04-26T00:42:58.603Z,47.00
2019-04-26T00:45:29.806Z,46.40
2019-04-26T00:47:59.065Z,47.70
2019-04-26T00:50:28.350Z,47.80
2019-04-26T00:52:58.145Z,46.30
2019-04-26T00:55:27.726Z,47.30
2019-04-26T00:57:56.959Z,46.30
2019-04-26T01:00:26.188Z,46.10
2019-04-26T01:02:56.492Z,46.60
2019-04-26T01:05:26.118Z,46.60
2019-04-26T01:07:56.964Z,47.20
2019-04-26T01:10:26.135Z,48.30
2019-04-26T01:12:55.333Z,47.80
2019-04-26T01:15:24.823Z,48.20
2019-04-26T01:17:54.156Z,47.20
2019-04-26T01:20:24.603Z,47.90
2019-04-26T01:22:54.431Z,47.40
2019-04-26T01:25:41.832Z,47.50
2019-04-26T01:28:15.460Z,47.60
2019-04-26T01:30:44.624Z,47.60
2019-04-26T01:33:13.791Z,47.70
2019-04-26T01:35:43.038Z,47.00
2019-04-26T01:38:14.563Z,47.60
2019-04-26T01:40:46.381Z,48.00
2019-04-26T01:43:22.974Z,48.10
2019-04-26T01:45:56.702Z,47.90
2019-04-26T01:48:44.940Z,47.90
2019-04-26T01:51:21.193Z,47.60
2019-04-26T01:53:51.704Z,47.60
2019-04-26T01:56:25.246Z,47.30
2019-04-26T01:58:54.425Z,47.70
2019-04-26T02:01:34.072Z,47.30
2019-04-26T02:04:03.344Z,46.90
2019-04-26T02:06:35.150Z,46.60
2019-04-26T02:09:05.345Z,46.40
2019-04-26T02:11:34.913Z,46.60
2019-04-26T02:14:04.239Z,48.60
2019-04-26T02:16:33.448Z,48.50
2019-04-26T02:19:02.786Z,48.90
2019-04-26T02:21:34.793Z,48.80
2019-04-26T02:24:17.700Z,48.80
2019-04-26T02:26:47.000Z,48.00
2019-04-26T02:29:26.811Z,48.20
2019-04-26T02:31:57.924Z,48.20
2019-04-26T02:34:28.959Z,48.80
2019-04-26T02:37:00.131Z,49.20
2019-04-26T02:39:38.285Z,49.30
2019-04-26T02:42:10.778Z,49.60
2019-04-26T02:44:44.948Z,50.60
2019-04-26T02:47:38.542Z,51.20
2019-04-26T02:50:11.371Z,51.60
2019-04-26T02:52:43.997Z,52.10
2019-04-26T02:55:42.442Z,52.80
2019-04-26T02:58:10.291Z,53.10
2019-04-26T03:00:39.587Z,54.10
2019-04-26T03:03:09.915Z,55.00
2019-04-26T03:05:40.579Z,55.50
2019-04-26T03:08:11.786Z,55.80
2019-04-26T03:10:43.512Z,56.30
2019-04-26T03:13:18.054Z,56.90
2019-04-26T03:16:07.285Z,58.00
2019-04-26T03:18:50.724Z,58.40
2019-04-26T03:21:32.012Z,59.20
2019-04-26T03:24:19.075Z,59.80
2019-04-26T03:27:09.542Z,60.50
2019-04-26T03:29:43.752Z,61.10
2019-04-26T03:32:39.116Z,61.60
2019-04-26T03:35:55.991Z,62.50
2019-04-26T03:38:46.547Z,63.80
2019-04-26T03:41:20.058Z,64.70
2019-04-26T03:44:10.628Z,65.70
2019-04-26T03:46:45.104Z,66.80
2019-04-26T03:49:38.012Z,67.50
2019-04-26T03:52:30.261Z,68.00
2019-04-26T03:55:26.059Z,68.80
2019-04-26T03:58:05.689Z,68.60
2019-04-26T04:00:37.201Z,69.00
2019-04-26T04:03:29.031Z,69.80
2019-04-26T04:06:00.088Z,70.20
2019-04-26T04:08:32.586Z,70.40
2019-04-26T04:11:05.098Z,70.50
2019-04-26T04:13:40.843Z,71.20
2019-04-26T04:16:28.644Z,71.80
2019-04-26T04:19:03.949Z,72.10
2019-04-26T04:21:54.492Z,72.50
2019-04-26T04:24:36.127Z,72.80
2019-04-26T04:27:11.196Z,72.70
2019-04-26T04:29:50.441Z,72.30
2019-04-26T04:32:39.806Z,72.40
2019-04-26T04:35:10.246Z,72.70
2019-04-26T04:38:05.918Z,72.70
2019-04-26T04:40:30.032Z,72.90
2019-04-26T04:43:06.914Z,72.80
2019-04-26T04:45:55.539Z,72.50
2019-04-26T04:48:52.748Z,72.00
2019-04-26T04:51:31.805Z,71.90
2019-04-26T04:54:16.052Z,72.20
2019-04-26T04:57:06.560Z,72.50
2019-04-26T04:59:58.710Z,72.10
2019-04-26T05:02:44.959Z,72.20
2019-04-26T05:05:49.000Z,73.00
2019-04-26T05:08:24.377Z,72.30
2019-04-26T05:10:57.867Z,72.40
2019-04-26T05:13:48.112Z,72.70
2019-04-26T05:16:34.329Z,72.70
2019-04-26T05:19:29.488Z,72.40
2019-04-26T05:22:17.026Z,72.60
2019-04-26T05:25:05.109Z,72.90
2019-04-26T05:27:51.163Z,73.40
2019-04-26T05:30:33.650Z,73.50
2019-04-26T05:33:24.260Z,73.40
2019-04-26T05:36:04.118Z,72.70
2019-04-26T05:38:42.537Z,72.50
2019-04-26T05:41:23.727Z,72.20
2019-04-26T05:44:09.907Z,70.50
2019-04-26T05:46:50.291Z,69.40
2019-04-26T05:49:48.047Z,67.80
2019-04-26T05:52:51.481Z,67.40
2019-04-26T05:55:56.028Z,65.70
2019-04-26T05:58:52.940Z,63.90
2019-04-26T06:01:48.115Z,62.30
2019-04-26T06:04:25.177Z,61.10
2019-04-26T06:07:05.032Z,60.40
2019-04-26T06:10:12.465Z,60.00
2019-04-26T06:13:03.084Z,58.80
2019-04-26T06:16:10.799Z,59.80
2019-04-26T06:19:05.819Z,59.80
2019-04-26T06:21:41.029Z,58.70
2019-04-26T06:24:32.968Z,58.90
2019-04-26T06:27:22.039Z,57.80
2019-04-26T06:30:01.239Z,56.90
2019-04-26T06:33:00.386Z,55.30
2019-04-26T06:35:26.302Z,54.70
2019-04-26T06:38:18.395Z,54.50
2019-04-26T06:41:11.898Z,52.90
2019-04-26T06:43:44.058Z,52.40
2019-04-26T06:46:33.340Z,52.90
2019-04-26T06:49:34.602Z,53.30
2019-04-26T06:52:15.070Z,51.70
2019-04-26T06:55:10.250Z,50.90
2019-04-26T06:58:05.648Z,51.30
2019-04-26T07:00:48.280Z,50.40
2019-04-26T07:03:20.715Z,48.80
2019-04-26T07:06:00.362Z,49.20
2019-04-26T07:08:38.361Z,50.60
2019-04-26T07:11:44.513Z,50.60
2019-04-26T07:14:50.194Z,49.60
2019-04-26T07:17:41.984Z,49.00
2019-04-26T07:20:29.640Z,46.60
2019-04-26T07:23:15.775Z,49.00
2019-04-26T07:26:13.714Z,48.90
2019-04-26T07:28:48.743Z,47.40
2019-04-26T07:31:30.072Z,47.60
2019-04-26T07:34:21.819Z,47.10
2019-04-26T07:37:11.385Z,47.50
2019-04-26T07:40:35.829Z,47.70
2019-04-26T07:43:27.346Z,47.60
2019-04-26T07:46:34.752Z,51.80
2019-04-26T07:49:29.686Z,53.40
2019-04-26T07:52:06.414Z,54.30
2019-04-26T07:54:53.941Z,53.90
2019-04-26T07:57:42.775Z,53.90
2019-04-26T08:00:17.484Z,55.20
2019-04-26T08:03:08.764Z,53.80
2019-04-26T08:05:57.613Z,53.60
2019-04-26T08:08:30.040Z,53.10
2019-04-26T08:11:15.038Z,52.50
2019-04-26T08:14:08.586Z,51.70
2019-04-26T08:16:42.773Z,50.60
2019-04-26T08:19:18.125Z,51.00
2019-04-26T08:21:49.125Z,49.90
2019-04-26T08:24:21.449Z,50.00
2019-04-26T08:27:08.838Z,50.10
2019-04-26T08:29:33.384Z,50.40
2019-04-26T08:32:05.545Z,49.50
2019-04-26T08:34:34.925Z,48.80
2019-04-26T08:37:06.679Z,49.30
2019-04-26T08:39:45.083Z,50.30
2019-04-26T08:42:18.251Z,51.00
2019-04-26T08:44:51.284Z,51.60
2019-04-26T08:47:34.349Z,52.20
2019-04-26T08:50:09.727Z,52.80
2019-04-26T08:52:36.580Z,53.10
2019-04-26T08:55:06.889Z,53.30
2019-04-26T08:57:36.800Z,53.40
2019-04-26T09:00:35.501Z,53.90
2019-04-26T09:03:11.734Z,53.80
2019-04-26T09:05:39.186Z,54.70
2019-04-26T09:08:08.352Z,55.70
2019-04-26T09:10:39.247Z,55.20
2019-04-26T09:13:08.471Z,54.70
2019-04-26T09:16:13.608Z,55.10
2019-04-26T09:18:47.958Z,54.90
2019-04-26T09:21:17.573Z,54.60
2019-04-26T09:24:02.778Z,54.80
2019-04-26T09:26:42.392Z,55.90
2019-04-26T09:29:26.275Z,56.30
2019-04-26T09:31:59.145Z,56.20
2019-04-26T09:34:41.376Z,56.40
2019-04-26T09:37:08.763Z,57.50
2019-04-26T09:39:41.641Z,57.40
2019-04-26T09:42:25.640Z,57.40
2019-04-26T09:45:12.975Z,58.40
2019-04-26T09:47:52.848Z,58.80
2019-04-26T09:50:25.568Z,58.80
2019-04-26T09:52:58.256Z,58.80
2019-04-26T09:55:35.114Z,59.30
2019-04-26T09:57:58.446Z,59.70
2019-04-26T10:00:29.562Z,60.00
2019-04-26T10:03:00.760Z,60.70
2019-04-26T10:05:29.985Z,61.90
2019-04-26T10:07:59.323Z,62.10
2019-04-26T10:10:30.972Z,62.20
2019-04-26T10:13:14.987Z,61.40
2019-04-26T10:16:04.308Z,61.70
2019-04-26T10:18:34.021Z,61.90
2019-04-26T10:21:03.250Z,62.20
2019-04-26T10:23:32.491Z,62.60
2019-04-26T10:26:02.755Z,62.60
2019-04-26T10:28:32.049Z,62.40
2019-04-26T10:31:01.347Z,62.60
2019-04-26T10:33:32.691Z,62.50
2019-04-26T10:36:01.493Z,62.80
2019-04-26T10:38:30.696Z,63.20
2019-04-26T10:40:59.968Z,63.90
2019-04-26T10:43:29.464Z,64.20
2019-04-26T10:45:58.840Z,65.40
2019-04-26T10:48:28.075Z,65.30
2019-04-26T10:50:57.246Z,65.20
2019-04-26T10:53:31.949Z,65.50
2019-04-26T10:56:08.775Z,65.40
2019-04-26T10:58:42.514Z,65.30
2019-04-26T11:01:13.501Z,66.20
2019-04-26T11:03:42.748Z,66.80
2019-04-26T11:06:11.976Z,67.10
2019-04-26T11:08:41.307Z,66.90
2019-04-26T11:11:10.560Z,66.90
2019-04-26T11:13:39.703Z,66.90
2019-04-26T11:16:09.081Z,67.00
2019-04-26T11:18:38.291Z,68.00
2019-04-26T11:21:07.479Z,69.90
2019-04-26T11:23:36.717Z,71.30
2019-04-26T11:26:05.897Z,72.00
2019-04-26T11:28:35.120Z,71.70
2019-04-26T11:31:04.376Z,71.00
2019-04-26T11:33:44.397Z,70.90
2019-04-26T11:36:07.338Z,70.40
2019-04-26T11:38:35.471Z,70.00
2019-04-26T11:41:06.824Z,68.50
2019-04-26T11:43:36.625Z,67.90
2019-04-26T11:46:05.906Z,67.70
2019-04-26T11:48:35.257Z,68.10
2019-04-26T11:51:04.455Z,68.50
2019-04-26T11:53:33.684Z,69.60
2019-04-26T11:56:05.806Z,69.90
2019-04-26T11:58:35.349Z,70.30
2019-04-26T12:01:06.301Z,71.30
2019-04-26T12:03:35.547Z,71.20
2019-04-26T12:06:09.358Z,71.00
2019-04-26T12:08:49.433Z,72.70
2019-04-26T12:11:25.786Z,74.30
2019-04-26T12:13:49.496Z,77.00
2019-04-26T12:16:20.402Z,81.20
2019-04-26T12:18:49.561Z,81.90
2019-04-26T12:21:18.872Z,81.80
2019-04-26T12:23:51.329Z,83.20
2019-04-26T12:26:21.738Z,81.70
2019-04-26T12:28:50.110Z,82.20
2019-04-26T12:31:19.343Z,82.60
2019-04-26T12:33:48.581Z,83.50
2019-04-26T12:36:17.812Z,85.30
2019-04-26T12:38:47.075Z,84.80
2019-04-26T12:41:17.185Z,84.10
2019-04-26T12:43:47.272Z,84.70
2019-04-26T12:46:33.024Z,85.40
2019-04-26T12:49:03.240Z,84.50
2019-04-26T12:51:32.514Z,84.10
2019-04-26T12:54:03.791Z,84.70
2019-04-26T12:56:32.777Z,85.90
2019-04-26T12:59:02.096Z,87.40
2019-04-26T13:01:31.540Z,86.10
2019-04-26T13:04:04.354Z,85.70
2019-04-26T13:06:36.536Z,85.60
2019-04-26T13:09:14.294Z,86.20
2019-04-26T13:12:01.793Z,86.00
2019-04-26T13:14:42.924Z,84.60
2019-04-26T13:17:12.144Z,84.00
2019-04-26T13:19:41.295Z,85.10
2019-04-26T13:22:12.556Z,85.40
2019-04-26T13:24:41.450Z,86.50
2019-04-26T13:27:12.005Z,86.10
2019-04-26T13:29:41.783Z,84.40
2019-04-26T13:32:11.006Z,85.70
2019-04-26T13:34:40.215Z,83.60
2019-04-26T13:37:09.379Z,83.70
2019-04-26T13:39:40.119Z,83.60
2019-04-26T13:42:09.895Z,82.90
2019-04-26T13:44:57.303Z,82.50
2019-04-26T13:47:36.887Z,83.10
2019-04-26T13:50:17.729Z,82.30
2019-04-26T13:52:46.943Z,82.80
2019-04-26T13:55:16.133Z,82.30
2019-04-26T13:57:46.175Z,80.40
2019-04-26T14:00:17.067Z,80.20
2019-04-26T14:02:46.394Z,78.70
2019-04-26T14:05:16.944Z,78.80
2019-04-26T14:07:46.250Z,79.60
2019-04-26T14:10:15.555Z,78.90
2019-04-26T14:12:46.174Z,77.60
2019-04-26T14:15:15.811Z,78.20
2019-04-26T14:17:45.018Z,76.40
2019-04-26T14:20:14.315Z,76.60
2019-04-26T14:22:48.079Z,77.30
2019-04-26T14:25:19.120Z,77.80
2019-04-26T14:27:51.499Z,80.70
2019-04-26T14:30:21.932Z,81.50
2019-04-26T14:32:53.313Z,78.80
2019-04-26T14:35:22.086Z,76.70
2019-04-26T14:37:51.614Z,75.60
2019-04-26T14:40:21.005Z,74.00
2019-04-26T14:42:50.350Z,74.80
2019-04-26T14:45:23.717Z,74.00
2019-04-26T14:47:52.091Z,78.20
2019-04-26T14:50:21.294Z,76.40
2019-04-26T14:52:50.447Z,79.00
2019-04-26T14:55:21.201Z,78.10
2019-04-26T14:57:53.916Z,79.40
2019-04-26T15:00:29.111Z,79.70
2019-04-26T15:02:59.965Z,82.30
2019-04-26T15:05:43.053Z,81.50
2019-04-26T15:08:11.682Z,81.80
2019-04-26T15:10:46.719Z,80.80
2019-04-26T15:13:19.584Z,81.90
2019-04-26T15:15:46.088Z,84.30
2019-04-26T15:18:14.843Z,87.20
2019-04-26T15:20:44.132Z,87.90
2019-04-26T15:23:13.531Z,86.40
2019-04-26T15:25:48.427Z,87.90
2019-04-26T15:28:16.383Z,88.10
2019-04-26T15:30:46.905Z,85.30
2019-04-26T15:33:16.411Z,86.30
2019-04-26T15:35:46.982Z,85.80
2019-04-26T15:38:16.356Z,86.80
2019-04-26T15:41:05.541Z,89.10
2019-04-26T15:43:36.239Z,88.70
2019-04-26T15:46:12.363Z,90.00
2019-04-26T15:48:43.022Z,90.00
2019-04-26T15:51:14.017Z,90.20
2019-04-26T15:53:48.653Z,90.00
2019-04-26T15:56:17.717Z,90.70
2019-04-26T15:58:48.903Z,90.40
2019-04-26T16:01:18.341Z,89.50
2019-04-26T16:03:47.535Z,88.80
2019-04-26T16:06:18.426Z,89.80
2019-04-26T16:08:47.619Z,89.00
2019-04-26T16:11:16.807Z,89.70
2019-04-26T16:13:53.399Z,88.90
2019-04-26T16:16:20.661Z,89.50
2019-04-26T16:18:49.921Z,89.10
2019-04-26T16:21:19.448Z,88.80
2019-04-26T16:23:53.647Z,89.60
2019-04-26T16:26:19.926Z,90.20
2019-04-26T16:28:50.927Z,89.10
2019-04-26T16:31:26.101Z,89.20
2019-04-26T16:33:57.090Z,89.30
2019-04-26T16:36:26.295Z,88.20
2019-04-26T16:38:57.952Z,88.50
2019-04-26T16:41:27.209Z,88.40
2019-04-26T16:43:56.800Z,87.20
2019-04-26T16:46:26.021Z,86.80
2019-04-26T16:49:01.845Z,85.90
2019-04-26T16:51:26.090Z,84.70
2019-04-26T16:56:28.133Z,85.20
2019-04-26T16:58:57.103Z,84.20
2019-04-26T17:00:33.600Z,85.00
2019-04-26T17:01:26.317Z,82.50
2019-04-26T17:03:55.631Z,82.30
2019-04-26T17:06:24.835Z,82.20
2019-04-26T17:09:00.854Z,83.70
2019-04-26T17:11:25.919Z,81.80
2019-04-26T17:13:57.017Z,82.00
2019-04-26T17:16:29.694Z,82.80
2019-04-26T17:18:59.523Z,84.40
2019-04-26T17:21:29.445Z,83.30
2019-04-26T17:24:00.850Z,83.00
2019-04-26T17:26:36.577Z,82.50
2019-04-26T17:29:06.192Z,82.30
2019-04-26T17:31:35.397Z,82.20
2019-04-26T17:34:05.231Z,82.50
2019-04-26T17:36:34.794Z,83.40
2019-04-26T17:39:11.076Z,84.20
2019-04-26T17:41:45.030Z,83.90
2019-04-26T17:44:11.207Z,84.60
2019-04-26T17:46:41.152Z,85.10
2019-04-26T17:49:11.097Z,85.50
2019-04-26T17:51:44.121Z,85.10
2019-04-26T17:54:33.564Z,85.10
2019-04-26T17:56:42.367Z,84.60
2019-04-26T17:59:30.136Z,84.90
2019-04-26T18:01:47.654Z,84.60
2019-04-26T18:04:13.574Z,84.30
2019-04-26T18:06:45.359Z,84.10
2019-04-26T18:09:37.971Z,83.00
2019-04-26T18:11:44.713Z,82.20
2019-04-26T18:14:21.187Z,83.40
2019-04-26T18:16:46.513Z,83.50
2019-04-26T18:19:30.308Z,83.90
2019-04-26T18:22:01.584Z,83.80
2019-04-26T18:24:32.308Z,83.90
2019-04-26T18:27:03.552Z,83.80
2019-04-26T18:29:33.676Z,84.30
2019-04-26T18:32:03.659Z,83.90
2019-04-26T18:34:36.672Z,84.30
2019-04-26T18:37:07.087Z,84.30
2019-04-26T18:39:35.757Z,84.50
2019-04-26T18:42:05.984Z,84.70
2019-04-26T18:44:39.194Z,83.80
2019-04-26T18:47:14.714Z,84.00
2019-04-26T18:49:43.559Z,84.30
2019-04-26T18:52:13.636Z,84.70
2019-04-26T18:54:47.885Z,83.70
2019-04-26T18:57:17.136Z,83.70
2019-04-26T18:59:51.366Z,84.10
2019-04-26T19:02:19.777Z,84.30
2019-04-26T19:04:49.692Z,84.10
2019-04-26T19:07:31.276Z,84.20
2019-04-26T19:10:00.736Z,83.50
2019-04-26T19:12:23.417Z,84.00
2019-04-26T19:15:07.550Z,83.60
2019-04-26T19:17:38.395Z,83.50
2019-04-26T19:20:25.759Z,83.30
2019-04-26T19:22:59.128Z,83.10
2019-04-26T19:25:29.830Z,83.40
2019-04-26T19:28:04.283Z,83.60
2019-04-26T19:30:31.277Z,84.10
2019-04-26T19:33:02.091Z,84.60
2019-04-26T19:35:32.887Z,85.20
2019-04-26T19:38:03.246Z,84.80
2019-04-26T19:40:32.657Z,84.80
2019-04-26T19:43:07.477Z,84.80
2019-04-26T19:45:34.593Z,84.70
2019-04-26T19:48:19.192Z,84.80
2019-04-26T19:50:56.573Z,85.10
2019-04-26T19:53:39.525Z,85.20
2019-04-26T19:56:27.489Z,85.30
2019-04-26T19:58:57.414Z,85.40
2019-04-26T20:01:24.921Z,85.40
2019-04-26T20:03:55.395Z,84.90
2019-04-26T20:06:26.825Z,84.00
2019-04-26T20:08:55.718Z,84.10
2019-04-26T20:11:28.643Z,83.40
2019-04-26T20:13:58.005Z,83.20
2019-04-26T20:16:27.374Z,83.10
2019-04-26T20:18:56.647Z,83.00
2019-04-26T20:21:26.877Z,82.40
2019-04-26T20:23:56.127Z,82.30
2019-04-26T20:26:25.313Z,81.80
2019-04-26T20:28:54.547Z,82.00
